createdAt,value
2023-11-24T00:01:02.445Z,99.90
2023-11-24T00:03:14.121Z,99.90
2023-11-24T00:15:46.081Z,99.90
2023-11-24T00:17:51.301Z,99.90
2023-11-24T00:19:53.999Z,99.90
2023-11-24T00:21:56.200Z,99.90
2023-11-24T00:23:58.953Z,99.90
2023-11-24T00:26:07.187Z,99.90
2023-11-24T00:34:20.756Z,99.90
2023-11-24T00:36:25.912Z,99.90
2023-11-24T00:38:31.182Z,99.90
2023-11-24T00:40:33.609Z,99.90
2023-11-24T00:42:36.915Z,96.20
2023-11-24T00:46:47.852Z,84.40
2023-11-24T00:48:54.028Z,92.10
2023-11-24T00:53:04.071Z,75.10
2023-11-24T00:55:09.456Z,60.80
2023-11-24T00:57:23.831Z,79.30
2023-11-24T00:59:28.896Z,41.40
2023-11-24T01:05:37.780Z,10.70
2023-11-24T01:11:46.859Z,1.00
2023-11-24T01:15:52.398Z,1.00
2023-11-24T01:19:58.286Z,1.00
2023-11-24T01:24:04.056Z,1.00
2023-11-24T01:30:14.404Z,1.00
2023-11-24T01:32:16.627Z,1.00
2023-11-24T01:34:19.286Z,99.90
2023-11-24T01:36:21.831Z,1.00
2023-11-24T01:40:27.625Z,1.00
2023-11-24T01:42:29.844Z,99.90
2023-11-24T01:46:35.335Z,99.90
2023-11-24T01:50:41.991Z,99.90
2023-11-24T01:52:44.907Z,99.90
2023-11-24T01:54:48.623Z,99.90
2023-11-24T01:56:51.811Z,80.90
2023-11-24T02:05:03.177Z,36.50
2023-11-24T02:11:12.932Z,99.90
2023-11-24T02:13:15.542Z,99.90
2023-11-24T02:17:20.927Z,99.90
2023-11-24T02:19:23.388Z,99.90
2023-11-24T02:21:25.899Z,99.90
2023-11-24T02:23:28.643Z,99.90
2023-11-24T02:25:31.363Z,1.00
2023-11-24T02:29:36.435Z,99.90
2023-11-24T02:35:44.906Z,99.90
2023-11-24T02:37:47.672Z,99.90
2023-11-24T02:39:49.830Z,99.90
2023-11-24T02:41:52.631Z,99.90
2023-11-24T02:45:58.281Z,99.90
2023-11-24T02:48:00.509Z,99.90
2023-11-24T02:52:07.044Z,99.90
2023-11-24T03:00:19.620Z,99.90
2023-11-24T03:02:22.554Z,99.90
2023-11-24T03:08:30.848Z,99.90
2023-11-24T03:10:33.348Z,99.90
2023-11-24T03:12:35.737Z,99.90
2023-11-24T03:14:39.614Z,1.00
2023-11-24T03:22:50.147Z,99.90
2023-11-24T03:26:55.377Z,99.90
2023-11-24T03:31:01.201Z,99.90
2023-11-24T03:35:07.494Z,99.90
2023-11-24T03:37:09.739Z,99.90
2023-11-24T03:41:17.922Z,99.90
2023-11-24T03:43:20.382Z,99.90
2023-11-24T03:47:25.425Z,99.90
2023-11-24T03:49:27.621Z,99.90
2023-11-24T03:53:32.904Z,1.00
2023-11-24T03:59:43.694Z,1.00
2023-11-24T04:03:48.871Z,1.00
2023-11-24T04:05:51.176Z,1.00
2023-11-24T04:09:56.532Z,99.90
2023-11-24T04:14:01.782Z,99.90
2023-11-24T04:16:05.680Z,99.90
2023-11-24T04:20:11.272Z,99.90
2023-11-24T04:24:16.496Z,99.90
2023-11-24T04:28:22.134Z,99.90
2023-11-24T04:30:24.294Z,99.90
2023-11-24T04:34:29.631Z,99.90
2023-11-24T04:36:32.261Z,99.90
2023-11-24T04:38:34.823Z,61.10
2023-11-24T04:42:40.243Z,17.30
2023-11-24T04:44:42.803Z,73.40
2023-11-24T04:52:54.857Z,99.90
2023-11-24T05:01:07.209Z,99.90
2023-11-24T05:03:09.529Z,99.90
2023-11-24T05:11:24.400Z,1.00
2023-11-24T05:15:29.431Z,99.90
2023-11-24T05:19:34.639Z,99.90
2023-11-24T05:21:39.975Z,1.00
2023-11-24T05:25:46.593Z,99.90
2023-11-24T05:27:49.536Z,1.00
2023-11-24T05:29:52.160Z,1.00
2023-11-24T05:31:54.446Z,99.90
2023-11-24T05:33:57.453Z,1.00
2023-11-24T05:35:59.821Z,99.90
2023-11-24T05:40:09.122Z,99.90
2023-11-24T05:42:11.843Z,99.90
2023-11-24T05:44:16.813Z,99.90
2023-11-24T05:46:19.965Z,99.90
2023-11-24T05:48:22.590Z,99.90
2023-11-24T05:50:25.419Z,99.90
2023-11-24T05:54:33.523Z,1.00
2023-11-24T05:56:35.775Z,99.90
2023-11-24T06:00:41.751Z,99.90
2023-11-24T06:04:50.819Z,68.20
2023-11-24T06:10:59.152Z,99.90
2023-11-24T06:19:13.609Z,99.50
2023-11-24T06:27:25.456Z,99.90
2023-11-24T06:31:31.078Z,99.90
2023-11-24T06:37:42.176Z,99.90
2023-11-24T06:41:49.420Z,99.90
2023-11-24T06:43:52.250Z,99.90
2023-11-24T06:45:54.372Z,99.90
2023-11-24T06:47:57.228Z,99.90
2023-11-24T06:50:00.520Z,99.90
2023-11-24T06:52:03.275Z,99.90
2023-11-24T06:54:07.064Z,98.00
2023-11-24T06:58:12.873Z,1.00
2023-11-24T07:00:19.375Z,1.00
2023-11-24T07:02:21.945Z,1.00
2023-11-24T07:04:24.833Z,99.90
2023-11-24T07:06:27.184Z,99.90
2023-11-24T07:08:29.647Z,99.90
2023-11-24T07:10:31.968Z,1.00
2023-11-24T07:12:35.218Z,99.90
2023-11-24T07:14:37.344Z,99.90
2023-11-24T07:16:40.024Z,99.90
2023-11-24T07:18:45.413Z,99.90
2023-11-24T07:20:50.322Z,99.90
2023-11-24T07:22:53.049Z,99.10
2023-11-24T07:24:56.694Z,99.90
2023-11-24T07:27:00.909Z,99.90
2023-11-24T07:29:04.831Z,99.90
2023-11-24T07:33:12.115Z,99.90
2023-11-24T07:35:15.726Z,99.90
2023-11-24T07:37:18.604Z,99.90
2023-11-24T07:39:22.136Z,99.90
2023-11-24T07:41:24.620Z,94.70
2023-11-24T07:43:26.832Z,17.90
2023-11-24T07:45:29.416Z,1.00
2023-11-24T07:47:31.892Z,99.90
2023-11-24T07:49:34.994Z,99.90
2023-11-24T07:51:37.217Z,99.90
2023-11-24T07:53:39.885Z,99.90
2023-11-24T07:55:42.962Z,99.90
2023-11-24T07:57:45.573Z,99.90
2023-11-24T07:59:47.985Z,99.90
2023-11-24T08:01:50.694Z,99.90
2023-11-24T08:03:53.245Z,99.90
2023-11-24T08:05:57.274Z,99.90
2023-11-24T08:10:05.881Z,99.90
2023-11-24T08:12:12.333Z,99.90
2023-11-24T08:14:16.255Z,1.00
2023-11-24T08:16:18.541Z,1.00
2023-11-24T08:20:25.394Z,1.00
2023-11-24T08:22:29.807Z,1.00
2023-11-24T08:24:35.075Z,1.00
2023-11-24T08:26:37.779Z,1.00
2023-11-24T08:28:45.150Z,1.00
2023-11-24T08:30:50.395Z,1.00
2023-11-24T08:32:52.853Z,1.00
2023-11-24T08:34:55.541Z,99.90
2023-11-24T08:36:57.738Z,99.90
2023-11-24T08:41:04.050Z,99.90
2023-11-24T08:45:09.699Z,99.90
2023-11-24T08:47:13.730Z,99.90
2023-11-24T08:49:15.975Z,99.90
2023-11-24T08:53:21.318Z,99.90
2023-11-24T08:55:25.129Z,99.90
2023-11-24T08:57:28.227Z,99.90
2023-11-24T09:01:38.515Z,99.90
2023-11-24T09:03:41.280Z,99.90
2023-11-24T09:05:43.577Z,99.90
2023-11-24T09:09:48.700Z,99.90
2023-11-24T09:11:51.426Z,99.90
2023-11-24T09:15:59.192Z,99.90
2023-11-24T09:20:09.544Z,99.90
2023-11-24T09:22:11.936Z,99.90
2023-11-24T09:24:16.179Z,99.90
2023-11-24T09:26:18.320Z,99.90
2023-11-24T09:28:21.914Z,99.90
2023-11-24T09:32:27.136Z,99.90
2023-11-24T09:36:32.602Z,99.90
2023-11-24T09:38:37.736Z,99.90
2023-11-24T09:40:41.134Z,99.90
2023-11-24T09:42:47.658Z,99.90
2023-11-24T09:44:56.028Z,99.90
2023-11-24T09:46:59.049Z,99.90
2023-11-24T09:49:02.790Z,99.90
2023-11-24T09:51:07.453Z,99.90
2023-11-24T09:53:14.211Z,99.90
2023-11-24T09:55:16.513Z,99.90
2023-11-24T09:59:24.319Z,99.90
2023-11-24T10:01:28.288Z,99.90
2023-11-24T10:03:30.859Z,99.90
2023-11-24T10:09:39.993Z,99.90
2023-11-24T10:11:44.088Z,99.90
2023-11-24T10:13:50.011Z,99.90
2023-11-24T10:15:53.734Z,99.90
2023-11-24T10:17:57.642Z,99.90
2023-11-24T10:22:03.900Z,99.90
2023-11-24T10:24:08.611Z,99.90
2023-11-24T10:26:16.939Z,99.90
2023-11-24T10:30:22.542Z,99.90
2023-11-24T10:32:25.005Z,99.90
2023-11-24T10:36:31.611Z,99.90
2023-11-24T10:38:34.915Z,99.90
2023-11-24T10:40:39.360Z,99.90
2023-11-24T10:42:49.767Z,99.90
2023-11-24T10:45:03.642Z,99.90
2023-11-24T10:47:12.727Z,99.90
2023-11-24T10:49:35.987Z,99.90
2023-11-24T10:51:46.469Z,99.90
2023-11-24T10:53:57.991Z,99.90
2023-11-24T10:56:04.802Z,99.90
2023-11-24T10:58:07.742Z,99.90
2023-11-24T11:00:11.015Z,99.90
2023-11-24T11:02:17.882Z,99.90
2023-11-24T11:04:21.738Z,99.90
2023-11-24T11:06:41.431Z,99.90
2023-11-24T11:08:57.319Z,99.90
2023-11-24T11:11:13.486Z,99.90
2023-11-24T11:13:17.150Z,99.90
2023-11-24T11:15:29.829Z,99.90
2023-11-24T11:17:32.464Z,99.90
2023-11-24T11:21:40.378Z,99.90
2023-11-24T11:23:42.993Z,99.90
2023-11-24T11:25:52.527Z,99.90
2023-11-24T11:27:58.313Z,99.90
2023-11-24T11:30:00.849Z,99.90
2023-11-24T11:32:13.725Z,99.90
2023-11-24T11:34:18.358Z,1.00
2023-11-24T11:36:21.121Z,99.90
2023-11-24T11:38:46.935Z,99.90
2023-11-24T11:40:52.925Z,99.90
2023-11-24T11:43:06.759Z,99.90
2023-11-24T11:45:13.706Z,1.00
2023-11-24T11:47:28.379Z,99.90
2023-11-24T11:49:35.882Z,1.00
2023-11-24T11:51:41.137Z,99.90
2023-11-24T11:53:58.234Z,1.00
2023-11-24T11:56:02.117Z,1.00
2023-11-24T11:58:05.828Z,1.00
2023-11-24T12:00:10.462Z,1.00
2023-11-24T12:06:28.697Z,1.00
2023-11-24T12:08:31.132Z,1.00
2023-11-24T12:10:33.461Z,1.00
2023-11-24T12:12:35.912Z,25.70
2023-11-24T12:18:52.416Z,99.90
2023-11-24T12:20:56.191Z,99.90
2023-11-24T12:22:58.778Z,99.90
2023-11-24T12:27:05.770Z,99.90
2023-11-24T12:29:15.853Z,1.00
2023-11-24T12:31:18.835Z,99.90
2023-11-24T12:33:26.003Z,99.90
2023-11-24T12:35:28.776Z,1.00
2023-11-24T12:37:31.441Z,1.00
2023-11-24T12:39:35.442Z,1.00
2023-11-24T12:41:38.149Z,1.00
2023-11-24T12:43:43.431Z,1.00
2023-11-24T12:45:49.511Z,1.00
2023-11-24T12:47:51.942Z,1.00
2023-11-24T12:50:07.887Z,1.00
2023-11-24T12:52:14.068Z,1.00
2023-11-24T12:56:22.100Z,1.00
2023-11-24T12:58:24.576Z,1.00
2023-11-24T13:00:28.534Z,1.00
2023-11-24T13:02:31.735Z,1.00
2023-11-24T13:04:34.269Z,82.30
2023-11-24T13:06:36.761Z,99.90
2023-11-24T13:08:38.849Z,99.90
2023-11-24T13:10:42.048Z,99.90
2023-11-24T13:12:44.948Z,99.90
2023-11-24T13:14:47.607Z,99.90
2023-11-24T13:16:56.265Z,1.00
2023-11-24T13:19:00.279Z,1.00
2023-11-24T13:21:02.923Z,1.00
2023-11-24T13:23:05.689Z,41.90
2023-11-24T13:25:09.920Z,6.70
2023-11-24T13:27:14.191Z,99.90
2023-11-24T13:31:21.199Z,99.90
2023-11-24T13:33:23.408Z,99.90
2023-11-24T13:37:31.652Z,99.90
2023-11-24T13:39:35.618Z,99.90
2023-11-24T13:41:37.755Z,99.90
2023-11-24T13:43:41.582Z,99.90
2023-11-24T13:45:44.213Z,99.90
2023-11-24T13:47:46.854Z,99.90
2023-11-24T13:49:50.432Z,99.90
2023-11-24T13:51:56.282Z,99.90
2023-11-24T13:53:58.693Z,68.40
2023-11-24T13:58:05.034Z,28.50
2023-11-24T14:00:12.652Z,1.00
2023-11-24T14:02:16.589Z,1.00
2023-11-24T14:04:20.285Z,1.00
2023-11-24T14:08:26.252Z,1.00
2023-11-24T14:10:28.559Z,1.00
2023-11-24T14:12:31.281Z,1.00
2023-11-24T14:14:33.540Z,1.00
2023-11-24T14:18:38.678Z,99.90
2023-11-24T14:20:41.612Z,99.90
2023-11-24T14:22:43.972Z,99.90
2023-11-24T14:24:46.398Z,99.90
2023-11-24T14:26:48.524Z,99.90
2023-11-24T14:28:51.026Z,99.90
2023-11-24T14:30:53.330Z,55.60
2023-11-24T14:32:56.023Z,1.00
2023-11-24T14:34:58.278Z,1.00
2023-11-24T14:37:00.729Z,1.00
2023-11-24T14:41:08.945Z,1.00
2023-11-24T14:45:21.690Z,1.00
2023-11-24T14:49:28.950Z,1.00
2023-11-24T14:51:34.164Z,1.00
2023-11-24T14:53:38.196Z,35.90
2023-11-24T14:57:46.640Z,99.90
2023-11-24T14:59:54.838Z,99.90
2023-11-24T15:02:01.272Z,99.90
2023-11-24T15:06:11.885Z,99.90
2023-11-24T15:08:18.141Z,1.00
2023-11-24T15:10:22.086Z,1.00
2023-11-24T15:12:28.267Z,1.00
2023-11-24T15:14:34.209Z,1.00
2023-11-24T15:16:46.055Z,2.20
2023-11-24T15:18:51.750Z,1.00
2023-11-24T15:20:55.036Z,99.90
2023-11-24T15:22:59.669Z,99.90
2023-11-24T15:25:02.234Z,99.90
2023-11-24T15:27:07.794Z,99.90
2023-11-24T15:31:42.996Z,99.90
2023-11-24T15:33:58.947Z,99.90
2023-11-24T15:36:03.594Z,99.90
2023-11-24T15:40:13.391Z,99.90
2023-11-24T15:42:18.333Z,99.90
2023-11-24T15:44:26.562Z,99.90
2023-11-24T15:46:34.425Z,99.90
2023-11-24T15:48:37.267Z,99.90
2023-11-24T15:50:39.852Z,99.90
2023-11-24T15:52:45.378Z,91.10
2023-11-24T15:54:47.617Z,68.30
2023-11-24T15:56:53.410Z,79.20
2023-11-24T15:59:06.379Z,1.00
2023-11-24T16:05:19.367Z,1.00
2023-11-24T16:09:29.605Z,1.00
2023-11-24T16:11:33.246Z,99.90
2023-11-24T16:13:37.916Z,99.90
2023-11-24T16:15:43.092Z,99.90
2023-11-24T16:17:51.499Z,99.90
2023-11-24T16:19:56.048Z,99.90
2023-11-24T16:21:58.688Z,99.90
2023-11-24T16:26:03.865Z,99.90
2023-11-24T16:28:06.147Z,99.90
2023-11-24T16:30:10.477Z,92.20
2023-11-24T16:32:12.766Z,19.80
2023-11-24T16:34:17.012Z,1.00
2023-11-24T16:36:19.656Z,97.30
2023-11-24T16:38:22.256Z,41.90
2023-11-24T16:40:24.438Z,32.90
2023-11-24T16:42:26.891Z,19.20
2023-11-24T16:44:32.931Z,1.00
2023-11-24T16:46:36.526Z,1.00
2023-11-24T16:48:42.192Z,1.00
2023-11-24T16:50:44.662Z,1.00
2023-11-24T16:52:47.861Z,1.00
2023-11-24T16:58:58.030Z,1.00
2023-11-24T17:03:04.713Z,1.00
2023-11-24T17:05:07.422Z,1.00
2023-11-24T17:07:10.050Z,1.00
2023-11-24T17:09:16.730Z,1.00
2023-11-24T17:11:19.686Z,1.00
2023-11-24T17:13:21.923Z,1.00
2023-11-24T17:15:24.523Z,1.00
2023-11-24T17:17:26.858Z,1.00
2023-11-24T17:19:31.952Z,1.00
2023-11-24T17:21:34.144Z,1.00
2023-11-24T17:23:42.348Z,1.00
2023-11-24T17:27:50.411Z,1.00
2023-11-24T17:29:52.624Z,32.30
2023-11-24T17:31:56.826Z,32.90
2023-11-24T17:36:04.395Z,21.60
2023-11-24T17:40:10.648Z,33.00
2023-11-24T17:42:12.876Z,71.90
2023-11-24T17:44:17.277Z,99.90
2023-11-24T17:52:29.597Z,99.90
2023-11-24T17:54:32.530Z,99.90
2023-11-24T17:56:35.060Z,99.90
2023-11-24T17:58:37.394Z,99.90
2023-11-24T18:00:41.442Z,99.90
2023-11-24T18:02:43.946Z,99.90
2023-11-24T18:04:46.419Z,99.90
2023-11-24T18:06:48.539Z,99.90
2023-11-24T18:08:55.908Z,99.90
2023-11-24T18:10:58.238Z,99.90
2023-11-24T18:15:05.560Z,99.90
2023-11-24T18:17:08.289Z,99.90
2023-11-24T18:19:10.599Z,99.90
2023-11-24T18:21:14.780Z,99.90
2023-11-24T18:23:16.992Z,99.90
2023-11-24T18:25:20.869Z,99.90
2023-11-24T18:27:25.288Z,85.80
2023-11-24T18:29:29.053Z,99.90
2023-11-24T18:31:32.185Z,93.80
2023-11-24T18:33:34.763Z,95.00
2023-11-24T18:35:40.633Z,85.70
2023-11-24T18:37:44.221Z,91.70
2023-11-24T18:39:48.657Z,79.90
2023-11-24T18:41:53.774Z,46.40
2023-11-24T18:43:57.140Z,83.60
2023-11-24T18:46:02.416Z,99.90
2023-11-24T18:48:05.875Z,99.90
2023-11-24T18:50:09.073Z,99.90
2023-11-24T18:54:15.660Z,99.90
2023-11-24T18:56:22.082Z,99.90
2023-11-24T18:58:25.839Z,99.90
2023-11-24T19:02:33.414Z,99.90
2023-11-24T19:04:35.891Z,99.90
2023-11-24T19:08:42.647Z,86.10
2023-11-24T19:10:45.654Z,42.10
2023-11-24T19:14:55.389Z,36.30
2023-11-24T19:19:01.150Z,10.00
2023-11-24T19:21:08.664Z,44.00
2023-11-24T19:23:11.250Z,1.00
2023-11-24T19:25:13.728Z,1.00
2023-11-24T19:27:16.375Z,1.00
2023-11-24T19:29:18.633Z,5.40
2023-11-24T19:31:21.545Z,48.10
2023-11-24T19:33:23.826Z,48.40
2023-11-24T19:37:29.088Z,68.50
2023-11-24T19:41:34.545Z,94.00
2023-11-24T19:43:37.253Z,99.90
2023-11-24T19:45:39.738Z,99.90
2023-11-24T19:47:42.309Z,99.90
2023-11-24T19:51:49.935Z,99.90
2023-11-24T19:53:54.327Z,99.90
2023-11-24T19:55:57.033Z,99.90
2023-11-24T20:00:02.479Z,99.90
2023-11-24T20:02:06.220Z,99.90
2023-11-24T20:06:11.732Z,99.90
2023-11-24T20:08:14.177Z,99.90
2023-11-24T20:10:16.413Z,99.90
2023-11-24T20:12:19.013Z,99.90
2023-11-24T20:16:25.032Z,99.90
2023-11-24T20:18:27.261Z,99.90
2023-11-24T20:20:32.326Z,1.00
2023-11-24T20:22:34.550Z,1.00
2023-11-24T20:24:37.634Z,1.00
2023-11-24T20:26:41.339Z,1.00
2023-11-24T20:30:49.983Z,1.00
2023-11-24T20:32:54.256Z,1.00
2023-11-24T20:34:56.557Z,22.10
2023-11-24T20:36:59.201Z,12.30
2023-11-24T20:39:01.624Z,34.40
2023-11-24T20:41:04.333Z,86.60
2023-11-24T20:43:07.494Z,99.90
2023-11-24T20:45:13.341Z,95.00
2023-11-24T20:47:15.781Z,99.90
2023-11-24T20:49:19.718Z,99.90
2023-11-24T20:53:24.726Z,99.90
2023-11-24T20:55:28.106Z,99.90
2023-11-24T20:57:32.743Z,99.90
2023-11-24T20:59:35.391Z,99.90
2023-11-24T21:01:38.062Z,99.90
2023-11-24T21:03:40.950Z,99.90
2023-11-24T21:09:56.404Z,99.90
2023-11-24T21:14:01.567Z,99.90
2023-11-24T21:16:04.060Z,99.90
2023-11-24T21:18:07.498Z,99.90
2023-11-24T21:20:11.441Z,99.90
2023-11-24T21:22:15.349Z,99.90
2023-11-24T21:24:17.802Z,1.00
2023-11-24T21:26:21.606Z,1.00
2023-11-24T21:28:24.153Z,16.20
2023-11-24T21:30:28.968Z,99.90
2023-11-24T21:34:38.371Z,99.90
2023-11-24T21:36:40.499Z,1.00
2023-11-24T21:38:45.953Z,1.00
2023-11-24T21:40:49.339Z,1.00
2023-11-24T21:42:54.774Z,1.00
2023-11-24T21:47:01.788Z,1.00
2023-11-24T21:49:05.024Z,68.80
2023-11-24T21:51:07.915Z,27.40
2023-11-24T21:53:10.110Z,80.50
2023-11-24T21:55:12.697Z,99.90
2023-11-24T21:57:14.923Z,99.90
2023-11-24T21:59:17.361Z,99.90
2023-11-24T22:01:23.676Z,99.90
2023-11-24T22:03:26.321Z,99.90
2023-11-24T22:07:34.801Z,99.90
2023-11-24T22:11:40.862Z,1.00
2023-11-24T22:13:43.039Z,1.00
2023-11-24T22:15:48.946Z,1.00
2023-11-24T22:17:51.194Z,3.10
2023-11-24T22:19:53.620Z,1.00
2023-11-24T22:21:55.834Z,77.40
2023-11-24T22:24:01.181Z,1.00
2023-11-24T22:28:06.399Z,1.00
2023-11-24T22:30:08.855Z,1.00
2023-11-24T22:36:20.895Z,1.00
2023-11-24T22:38:23.285Z,99.90
2023-11-24T22:40:25.753Z,99.90
2023-11-24T22:42:28.123Z,1.00
2023-11-24T22:44:30.610Z,1.00
2023-11-24T22:46:34.123Z,99.90
2023-11-24T22:48:36.988Z,99.90
2023-11-24T22:50:39.257Z,1.00
2023-11-24T22:52:41.822Z,1.00
2023-11-24T22:54:44.030Z,1.00
2023-11-24T22:56:46.511Z,1.00
2023-11-24T22:58:52.880Z,1.00
2023-11-24T23:01:00.338Z,44.60
2023-11-24T23:03:03.271Z,99.90
2023-11-24T23:05:06.682Z,99.90
2023-11-24T23:07:09.228Z,99.90
2023-11-24T23:09:13.641Z,99.90
2023-11-24T23:11:19.552Z,99.90
2023-11-24T23:13:22.838Z,99.90
2023-11-24T23:15:25.806Z,99.90
2023-11-24T23:19:30.988Z,99.90
2023-11-24T23:21:33.568Z,99.90
2023-11-24T23:23:36.219Z,99.90
2023-11-24T23:25:38.741Z,27.60
2023-11-24T23:27:41.134Z,1.00
2023-11-24T23:29:46.500Z,1.00
2023-11-24T23:31:49.381Z,99.90
2023-11-24T23:33:52.234Z,99.90
2023-11-24T23:35:54.429Z,99.90
2023-11-24T23:37:57.010Z,1.00
2023-11-24T23:39:59.252Z,1.00
2023-11-24T23:42:02.564Z,1.00
2023-11-24T23:44:05.823Z,52.30
2023-11-24T23:46:08.994Z,22.30
2023-11-24T23:48:12.648Z,46.00
2023-11-24T23:50:15.880Z,1.00
2023-11-24T23:54:20.971Z,99.90
2023-11-24T23:56:23.384Z,99.90
2023-11-24T23:58:27.204Z,99.90
